createdAt,value
2022-11-15T00:01:44.268Z,69.53
2022-11-15T00:04:29.690Z,74.77
2022-11-15T00:07:40.408Z,71.73
2022-11-15T00:10:21.151Z,76.23
2022-11-15T00:13:15.692Z,75.07
2022-11-15T00:16:02.289Z,75.10
2022-11-15T00:18:50.661Z,78.77
2022-11-15T00:21:36.731Z,79.63
2022-11-15T00:24:22.321Z,74.00
2022-11-15T00:27:08.258Z,77.17
2022-11-15T00:29:54.307Z,73.10
2022-11-15T00:32:39.779Z,73.87
2022-11-15T00:35:25.405Z,68.07
2022-11-15T00:38:10.667Z,72.23
2022-11-15T00:40:56.227Z,66.57
2022-11-15T00:43:44.609Z,73.60
2022-11-15T00:46:30.436Z,65.07
2022-11-15T00:49:15.761Z,64.13
2022-11-15T00:52:01.460Z,65.83
2022-11-15T00:54:47.043Z,67.73
2022-11-15T00:57:32.841Z,65.03
2022-11-15T01:00:18.672Z,62.63
2022-11-15T01:03:03.963Z,62.43
2022-11-15T01:05:49.392Z,63.80
2022-11-15T01:08:35.367Z,61.97
2022-11-15T01:11:20.735Z,65.00
2022-11-15T01:14:06.308Z,66.17
2022-11-15T01:16:52.012Z,58.73
2022-11-15T01:19:37.466Z,64.83
2022-11-15T01:22:23.855Z,63.00
2022-11-15T01:25:09.410Z,62.23
2022-11-15T01:27:55.024Z,62.53
2022-11-15T01:30:40.483Z,60.00
2022-11-15T01:33:26.332Z,57.57
2022-11-15T01:36:18.987Z,63.37
2022-11-15T01:39:04.740Z,64.07
2022-11-15T01:41:50.448Z,55.70
2022-11-15T01:44:36.220Z,56.60
2022-11-15T01:47:29.470Z,65.87
2022-11-15T01:50:20.047Z,60.40
2022-11-15T01:53:05.746Z,56.77
2022-11-15T01:55:51.116Z,54.67
2022-11-15T01:58:38.097Z,57.60
2022-11-15T02:01:25.295Z,56.83
2022-11-15T02:04:33.204Z,56.53
2022-11-15T02:07:21.229Z,61.67
2022-11-15T02:10:13.772Z,61.03
2022-11-15T02:13:01.627Z,54.47
2022-11-15T02:16:25.749Z,62.77
2022-11-15T02:19:39.180Z,58.63
2022-11-15T02:22:36.412Z,59.20
2022-11-15T02:25:25.067Z,58.63
2022-11-15T02:28:32.073Z,53.77
2022-11-15T02:31:26.895Z,53.03
2022-11-15T02:34:50.168Z,55.73
2022-11-15T02:37:48.496Z,48.13
2022-11-15T02:40:46.475Z,44.47
2022-11-15T02:43:59.977Z,50.67
2022-11-15T02:47:12.774Z,50.60
2022-11-15T02:50:02.696Z,47.30
2022-11-15T02:52:50.285Z,45.77
2022-11-15T02:55:39.787Z,43.77
2022-11-15T02:58:56.113Z,48.37
2022-11-15T03:02:13.690Z,44.47
2022-11-15T03:05:21.702Z,43.50
2022-11-15T03:08:33.574Z,48.40
2022-11-15T03:11:21.509Z,43.07
2022-11-15T03:14:24.456Z,43.47
2022-11-15T03:17:34.057Z,46.67
2022-11-15T03:20:20.746Z,47.90
2022-11-15T03:23:10.037Z,42.70
2022-11-15T03:25:57.340Z,41.97
2022-11-15T03:28:45.244Z,41.80
2022-11-15T03:31:50.434Z,45.17
2022-11-15T03:34:45.247Z,42.70
2022-11-15T03:38:12.328Z,45.57
2022-11-15T03:41:02.643Z,42.90
2022-11-15T03:44:17.562Z,44.70
2022-11-15T03:47:17.639Z,47.53
2022-11-15T03:50:23.914Z,42.40
2022-11-15T03:53:10.197Z,45.20
2022-11-15T03:55:55.668Z,41.57
2022-11-15T03:58:41.392Z,39.77
2022-11-15T04:01:26.918Z,38.07
2022-11-15T04:04:12.833Z,40.57
2022-11-15T04:06:58.323Z,40.73
2022-11-15T04:10:02.260Z,45.00
2022-11-15T04:12:48.708Z,41.67
2022-11-15T04:15:34.693Z,38.17
2022-11-15T04:18:20.286Z,46.27
2022-11-15T04:21:24.452Z,41.00
2022-11-15T04:24:15.780Z,45.83
2022-11-15T04:27:01.180Z,41.27
2022-11-15T04:29:46.592Z,42.33
2022-11-15T04:32:32.156Z,41.83
2022-11-15T04:35:17.832Z,46.50
2022-11-15T04:38:05.885Z,43.20
2022-11-15T04:40:51.022Z,39.53
2022-11-15T04:43:36.705Z,42.07
2022-11-15T04:46:24.659Z,40.53
2022-11-15T04:49:09.741Z,43.60
2022-11-15T04:51:55.309Z,38.93
2022-11-15T04:54:43.067Z,37.57
2022-11-15T04:57:28.813Z,37.80
2022-11-15T05:00:16.594Z,40.77
2022-11-15T05:03:20.568Z,39.63
2022-11-15T05:06:06.850Z,43.57
2022-11-15T05:08:52.094Z,43.00
2022-11-15T05:11:37.608Z,41.37
2022-11-15T05:14:23.142Z,46.07
2022-11-15T05:17:08.392Z,36.87
2022-11-15T05:19:53.972Z,32.50
2022-11-15T05:22:39.214Z,30.10
2022-11-15T05:25:25.274Z,29.20
2022-11-15T05:28:10.719Z,30.27
2022-11-15T05:31:06.369Z,33.13
2022-11-15T05:33:53.047Z,32.73
2022-11-15T05:36:42.957Z,29.93
2022-11-15T05:39:28.122Z,28.73
2022-11-15T05:42:17.746Z,32.70
2022-11-15T05:45:06.851Z,32.07
2022-11-15T05:47:55.281Z,27.17
2022-11-15T05:50:44.471Z,30.97
2022-11-15T05:53:30.806Z,33.23
2022-11-15T05:56:16.829Z,34.23
2022-11-15T05:59:03.449Z,30.23
2022-11-15T06:01:48.630Z,32.93
2022-11-15T06:04:34.398Z,36.07
2022-11-15T06:07:20.188Z,35.47
2022-11-15T06:10:05.867Z,34.03
2022-11-15T06:13:02.590Z,35.93
2022-11-15T06:15:48.061Z,37.70
2022-11-15T06:18:35.053Z,38.90
2022-11-15T06:21:20.365Z,40.37
2022-11-15T06:24:07.055Z,37.57
2022-11-15T06:26:53.983Z,39.47
2022-11-15T06:29:39.665Z,38.37
2022-11-15T06:32:25.010Z,40.33
2022-11-15T06:35:10.636Z,38.40
2022-11-15T06:37:56.816Z,40.30
2022-11-15T06:40:42.290Z,36.77
2022-11-15T06:43:27.788Z,37.23
2022-11-15T06:46:13.192Z,41.00
2022-11-15T06:48:58.832Z,41.10
2022-11-15T06:51:44.193Z,37.83
2022-11-15T06:54:29.755Z,40.43
2022-11-15T06:57:15.305Z,41.33
2022-11-15T07:00:00.483Z,39.90
2022-11-15T07:02:46.126Z,37.90
2022-11-15T07:05:32.042Z,35.43
2022-11-15T07:08:17.715Z,39.60
2022-11-15T07:11:05.877Z,37.33
2022-11-15T07:13:51.041Z,40.37
2022-11-15T07:16:37.890Z,39.90
2022-11-15T07:19:23.264Z,41.33
2022-11-15T07:22:09.018Z,36.10
2022-11-15T07:24:54.903Z,31.53
2022-11-15T07:27:40.403Z,38.13
2022-11-15T07:30:27.441Z,38.00
2022-11-15T07:33:13.144Z,40.30
2022-11-15T07:36:02.740Z,42.07
2022-11-15T07:38:48.423Z,39.17
2022-11-15T07:41:34.006Z,43.40
2022-11-15T07:44:19.560Z,40.20
2022-11-15T07:47:05.333Z,38.83
2022-11-15T07:49:50.569Z,37.43
2022-11-15T07:52:36.166Z,39.40
2022-11-15T07:55:22.026Z,38.53
2022-11-15T07:58:12.779Z,35.30
2022-11-15T08:00:58.257Z,37.37
2022-11-15T08:03:43.674Z,38.00
2022-11-15T08:06:29.226Z,38.10
2022-11-15T08:09:14.981Z,41.73
2022-11-15T08:12:00.393Z,41.27
2022-11-15T08:14:46.027Z,38.77
2022-11-15T08:17:33.841Z,37.80
2022-11-15T08:20:20.531Z,47.17
2022-11-15T08:23:06.947Z,37.37
2022-11-15T08:25:52.385Z,38.13
2022-11-15T08:28:38.175Z,38.27
2022-11-15T08:31:23.737Z,34.53
2022-11-15T08:34:09.315Z,39.17
2022-11-15T08:36:54.657Z,38.87
2022-11-15T08:39:39.948Z,34.57
2022-11-15T08:42:25.101Z,35.40
2022-11-15T08:45:11.110Z,37.33
2022-11-15T08:47:56.994Z,40.90
2022-11-15T08:50:44.628Z,38.57
2022-11-15T08:53:30.070Z,34.10
2022-11-15T08:56:16.458Z,36.47
2022-11-15T08:59:02.198Z,41.57
2022-11-15T09:01:47.768Z,36.93
2022-11-15T09:04:33.784Z,36.20
2022-11-15T09:07:19.804Z,37.13
2022-11-15T09:10:05.563Z,40.80
2022-11-15T09:12:51.405Z,34.20
2022-11-15T09:15:36.806Z,36.37
2022-11-15T09:18:23.736Z,37.20
2022-11-15T09:21:10.452Z,41.60
2022-11-15T09:23:55.644Z,42.83
2022-11-15T09:26:41.799Z,45.10
2022-11-15T09:29:27.424Z,45.43
2022-11-15T09:32:12.686Z,44.50
2022-11-15T09:34:59.148Z,45.03
2022-11-15T09:37:44.818Z,42.67
2022-11-15T09:40:32.174Z,45.03
2022-11-15T09:43:29.798Z,41.83
2022-11-15T09:46:25.552Z,41.53
2022-11-15T09:49:12.861Z,45.70
2022-11-15T09:52:04.642Z,45.07
2022-11-15T09:54:56.247Z,43.77
2022-11-15T09:57:45.864Z,41.20
2022-11-15T10:00:46.559Z,47.57
2022-11-15T10:03:29.896Z,47.80
2022-11-15T10:06:01.505Z,47.20
2022-11-15T10:08:37.687Z,46.20
2022-11-15T10:11:36.924Z,45.10
2022-11-15T10:14:21.051Z,46.40
2022-11-15T10:16:57.268Z,47.00
2022-11-15T10:19:33.312Z,49.73
2022-11-15T10:22:06.131Z,50.57
2022-11-15T10:24:40.541Z,44.77
2022-11-15T10:27:16.986Z,46.83
2022-11-15T10:29:49.919Z,47.77
2022-11-15T10:32:20.276Z,44.77
2022-11-15T10:34:49.392Z,47.73
2022-11-15T10:37:30.125Z,46.13
2022-11-15T10:40:25.548Z,46.13
2022-11-15T10:43:11.627Z,47.47
2022-11-15T10:45:39.536Z,51.13
2022-11-15T10:48:15.524Z,47.17
2022-11-15T10:50:47.503Z,48.73
2022-11-15T10:53:43.099Z,49.93
2022-11-15T10:56:16.670Z,51.73
2022-11-15T10:58:50.910Z,48.00
2022-11-15T11:01:24.251Z,45.43
2022-11-15T11:04:10.865Z,47.63
2022-11-15T11:06:54.229Z,50.97
2022-11-15T11:09:30.131Z,57.13
2022-11-15T11:11:57.128Z,50.13
2022-11-15T11:14:28.336Z,47.40
2022-11-15T11:17:12.748Z,45.47
2022-11-15T11:20:08.537Z,50.47
2022-11-15T11:23:00.266Z,48.37
2022-11-15T11:26:01.854Z,55.00
2022-11-15T11:28:44.875Z,49.10
2022-11-15T11:31:21.563Z,54.10
2022-11-15T11:34:25.381Z,47.83
2022-11-15T11:37:10.247Z,45.10
2022-11-15T11:40:20.436Z,49.43
2022-11-15T11:43:05.445Z,52.03
2022-11-15T11:45:35.483Z,45.43
2022-11-15T11:48:14.382Z,50.00
2022-11-15T11:50:43.397Z,47.63
2022-11-15T11:53:16.180Z,53.67
2022-11-15T11:55:43.105Z,50.47
2022-11-15T11:58:22.883Z,50.73
2022-11-15T12:00:55.099Z,53.47
2022-11-15T12:03:46.745Z,48.53
2022-11-15T12:06:30.229Z,51.03
2022-11-15T12:09:22.798Z,43.27
2022-11-15T12:12:17.541Z,53.97
2022-11-15T12:14:48.835Z,52.47
2022-11-15T12:17:19.180Z,47.10
2022-11-15T12:19:46.868Z,55.90
2022-11-15T12:22:44.171Z,46.63
2022-11-15T12:25:30.517Z,53.80
2022-11-15T12:28:11.947Z,51.27
2022-11-15T12:30:57.505Z,50.40
2022-11-15T12:33:44.515Z,54.37
2022-11-15T12:36:23.741Z,52.33
2022-11-15T12:38:55.863Z,48.50
2022-11-15T12:41:25.823Z,51.47
2022-11-15T12:43:53.225Z,50.70
2022-11-15T12:46:21.531Z,51.33
2022-11-15T12:48:54.893Z,54.30
2022-11-15T12:51:41.396Z,46.37
2022-11-15T12:54:23.432Z,56.33
2022-11-15T12:57:16.556Z,49.00
2022-11-15T12:59:59.680Z,53.87
2022-11-15T13:02:36.049Z,51.83
2022-11-15T13:05:15.440Z,50.77
2022-11-15T13:07:42.352Z,54.03
2022-11-15T13:10:33.638Z,50.93
2022-11-15T13:13:01.972Z,54.13
2022-11-15T13:15:55.395Z,53.20
2022-11-15T13:18:34.066Z,57.93
2022-11-15T13:21:22.986Z,53.00
2022-11-15T13:23:56.476Z,54.87
2022-11-15T13:26:24.158Z,55.73
2022-11-15T13:28:55.624Z,52.97
2022-11-15T13:31:27.054Z,53.10
2022-11-15T13:33:57.166Z,51.57
2022-11-15T13:36:30.696Z,60.97
2022-11-15T13:39:05.640Z,57.00
2022-11-15T13:41:34.964Z,59.10
2022-11-15T13:44:04.439Z,62.23
2022-11-15T13:46:35.205Z,56.00
2022-11-15T13:49:04.965Z,61.67
2022-11-15T13:51:55.429Z,59.63
2022-11-15T13:54:45.301Z,63.60
2022-11-15T13:57:23.364Z,62.03
2022-11-15T13:59:54.392Z,63.50
2022-11-15T14:02:41.678Z,62.13
2022-11-15T14:05:22.993Z,67.43
2022-11-15T14:08:02.644Z,61.67
2022-11-15T14:10:38.506Z,61.60
2022-11-15T14:13:13.010Z,66.83
2022-11-15T14:15:40.940Z,63.37
2022-11-15T14:18:07.878Z,61.73
2022-11-15T14:20:39.980Z,61.33
2022-11-15T14:23:27.771Z,62.70
2022-11-15T14:25:58.102Z,56.97
2022-11-15T14:28:25.093Z,58.97
2022-11-15T14:30:54.148Z,56.17
2022-11-15T14:33:36.078Z,52.23
2022-11-15T14:36:12.129Z,52.57
2022-11-15T14:38:39.356Z,52.40
2022-11-15T14:41:06.862Z,48.77
2022-11-15T14:43:33.930Z,50.37
2022-11-15T14:46:01.408Z,48.30
2022-11-15T14:48:28.520Z,51.10
2022-11-15T14:50:55.575Z,57.57
2022-11-15T14:53:23.187Z,49.87
2022-11-15T14:55:50.403Z,50.57
2022-11-15T14:58:21.183Z,52.73
2022-11-15T15:00:48.186Z,59.33
2022-11-15T15:03:15.313Z,57.30
2022-11-15T15:05:44.092Z,57.77
2022-11-15T15:08:11.894Z,54.23
2022-11-15T15:10:43.002Z,56.13
2022-11-15T15:13:24.588Z,53.43
2022-11-15T15:15:53.191Z,59.83
2022-11-15T15:18:21.234Z,59.00
2022-11-15T15:21:08.176Z,61.03
2022-11-15T15:23:36.615Z,62.53
2022-11-15T15:26:03.959Z,58.83
2022-11-15T15:28:34.576Z,58.97
2022-11-15T15:31:02.817Z,61.40
2022-11-15T15:33:29.858Z,53.90
2022-11-15T15:35:56.922Z,57.23
2022-11-15T15:38:24.037Z,60.57
2022-11-15T15:40:51.753Z,61.73
2022-11-15T15:43:18.891Z,61.10
2022-11-15T15:45:46.275Z,57.83
2022-11-15T15:48:17.859Z,56.00
2022-11-15T15:50:45.175Z,58.10
2022-11-15T15:53:13.518Z,57.03
2022-11-15T15:55:40.797Z,62.77
2022-11-15T15:58:09.295Z,60.33
2022-11-15T16:00:37.094Z,59.63
2022-11-15T16:03:04.308Z,59.90
2022-11-15T16:05:31.270Z,55.50
2022-11-15T16:07:58.273Z,61.73
2022-11-15T16:10:30.708Z,62.87
2022-11-15T16:12:58.668Z,60.57
2022-11-15T16:15:28.018Z,55.53
2022-11-15T16:17:57.531Z,54.00
2022-11-15T16:20:43.576Z,54.83
2022-11-15T16:23:13.081Z,60.03
2022-11-15T16:25:49.521Z,65.93
2022-11-15T16:28:37.032Z,57.20
2022-11-15T16:31:09.970Z,60.73
2022-11-15T16:33:37.636Z,61.23
2022-11-15T16:36:06.937Z,63.97
2022-11-15T16:38:35.096Z,60.00
2022-11-15T16:41:02.461Z,61.53
2022-11-15T16:43:29.446Z,64.53
2022-11-15T16:45:56.666Z,68.57
2022-11-15T16:48:25.968Z,61.77
2022-11-15T16:50:57.693Z,65.10
2022-11-15T16:53:26.420Z,66.97
2022-11-15T16:55:53.644Z,63.00
2022-11-15T16:58:21.026Z,72.93
2022-11-15T17:00:55.598Z,67.80
2022-11-15T17:03:24.195Z,72.23
2022-11-15T17:05:51.579Z,69.47
2022-11-15T17:08:20.919Z,65.60
2022-11-15T17:10:48.168Z,68.00
2022-11-15T17:13:15.384Z,62.90
2022-11-15T17:15:42.582Z,69.07
2022-11-15T17:18:14.422Z,58.83
2022-11-15T17:20:42.788Z,63.60
2022-11-15T17:23:14.586Z,61.17
2022-11-15T17:25:41.949Z,58.07
2022-11-15T17:28:08.966Z,59.47
2022-11-15T17:30:35.900Z,62.03
2022-11-15T17:33:03.272Z,66.33
2022-11-15T17:35:30.317Z,62.80
2022-11-15T17:37:57.388Z,62.63
2022-11-15T17:40:24.870Z,65.10
2022-11-15T17:42:51.835Z,63.47
2022-11-15T17:45:18.828Z,64.37
2022-11-15T17:47:46.084Z,61.93
2022-11-15T17:50:13.181Z,59.30
2022-11-15T17:52:40.240Z,64.07
2022-11-15T17:55:07.456Z,56.50
2022-11-15T17:57:34.403Z,61.83
2022-11-15T18:00:01.438Z,61.00
2022-11-15T18:02:31.063Z,62.03
2022-11-15T18:04:58.035Z,56.30
2022-11-15T18:07:25.042Z,59.17
2022-11-15T18:09:52.106Z,57.53
2022-11-15T18:12:19.811Z,57.53
2022-11-15T18:14:46.803Z,58.40
2022-11-15T18:17:13.826Z,58.37
2022-11-15T18:19:40.778Z,57.10
2022-11-15T18:22:10.245Z,56.67
2022-11-15T18:24:42.856Z,55.50
2022-11-15T18:27:10.067Z,57.27
2022-11-15T18:29:37.978Z,56.47
2022-11-15T18:32:11.625Z,61.67
2022-11-15T18:34:39.029Z,57.53
2022-11-15T18:37:06.193Z,60.73
2022-11-15T18:39:33.277Z,66.60
2022-11-15T18:42:00.706Z,58.67
2022-11-15T18:44:30.260Z,59.43
2022-11-15T18:46:57.395Z,64.27
2022-11-15T18:49:24.440Z,62.80
2022-11-15T18:51:51.463Z,62.83
2022-11-15T18:54:18.547Z,63.37
2022-11-15T18:56:45.967Z,56.87
2022-11-15T18:59:13.449Z,57.03
2022-11-15T19:01:48.639Z,59.43
2022-11-15T19:04:18.627Z,56.43
2022-11-15T19:06:47.966Z,59.13
2022-11-15T19:09:16.946Z,54.63
2022-11-15T19:11:45.943Z,56.57
2022-11-15T19:14:15.719Z,58.90
2022-11-15T19:16:45.201Z,51.07
2022-11-15T19:19:14.743Z,51.77
2022-11-15T19:21:42.523Z,54.07
2022-11-15T19:24:10.597Z,48.63
2022-11-15T19:26:38.013Z,48.10
2022-11-15T19:29:06.494Z,51.60
2022-11-15T19:31:34.198Z,56.13
2022-11-15T19:34:04.557Z,52.60
2022-11-15T19:36:34.122Z,50.80
2022-11-15T19:39:08.200Z,57.80
2022-11-15T19:41:37.896Z,56.97
2022-11-15T19:44:06.192Z,55.10
2022-11-15T19:46:33.656Z,52.33
2022-11-15T19:49:00.730Z,52.17
2022-11-15T19:51:30.392Z,53.07
2022-11-15T19:54:03.586Z,51.60
2022-11-15T19:56:30.610Z,50.00
2022-11-15T19:58:57.853Z,48.60
2022-11-15T20:01:30.416Z,56.47
2022-11-15T20:03:59.638Z,54.63
2022-11-15T20:06:29.513Z,54.23
2022-11-15T20:08:57.189Z,54.57
2022-11-15T20:11:24.785Z,57.83
2022-11-15T20:13:52.151Z,58.07
2022-11-15T20:16:21.698Z,58.53
2022-11-15T20:18:50.526Z,50.13
2022-11-15T20:21:17.886Z,58.93
2022-11-15T20:23:45.481Z,55.27
2022-11-15T20:26:15.905Z,55.20
2022-11-15T20:28:45.013Z,51.10
2022-11-15T20:31:13.057Z,49.00
2022-11-15T20:33:40.533Z,52.30
2022-11-15T20:36:13.028Z,50.57
2022-11-15T20:38:40.250Z,47.17
2022-11-15T20:41:07.681Z,51.87
2022-11-15T20:43:34.943Z,52.20
2022-11-15T20:46:02.147Z,51.97
2022-11-15T20:48:29.436Z,49.57
2022-11-15T20:51:22.713Z,49.80
2022-11-15T20:53:49.955Z,48.60
2022-11-15T20:56:19.700Z,50.23
2022-11-15T20:58:47.292Z,50.53
2022-11-15T21:01:15.611Z,49.37
2022-11-15T21:03:43.408Z,44.83
2022-11-15T21:06:11.438Z,45.03
2022-11-15T21:08:56.793Z,46.63
2022-11-15T21:11:43.578Z,39.23
2022-11-15T21:14:10.739Z,39.70
2022-11-15T21:16:39.028Z,35.93
2022-11-15T21:19:06.699Z,41.40
2022-11-15T21:21:35.140Z,38.90
2022-11-15T21:24:07.008Z,37.07
2022-11-15T21:26:34.835Z,35.97
2022-11-15T21:29:02.266Z,37.40
2022-11-15T21:31:29.279Z,35.70
2022-11-15T21:33:56.412Z,37.77
2022-11-15T21:36:25.135Z,36.60
2022-11-15T21:38:52.195Z,38.53
2022-11-15T21:41:19.325Z,43.07
2022-11-15T21:43:46.875Z,37.77
2022-11-15T21:46:13.928Z,37.57
2022-11-15T21:48:41.083Z,36.33
2022-11-15T21:51:10.433Z,35.83
2022-11-15T21:53:37.401Z,38.37
2022-11-15T21:56:04.898Z,37.47
2022-11-15T21:58:32.210Z,42.03
2022-11-15T22:01:18.435Z,40.43
2022-11-15T22:03:45.830Z,37.87
2022-11-15T22:06:17.513Z,42.30
2022-11-15T22:08:46.154Z,42.77
2022-11-15T22:11:13.963Z,40.17
2022-11-15T22:13:41.275Z,35.70
2022-11-15T22:16:09.564Z,40.40
2022-11-15T22:18:37.590Z,37.37
2022-11-15T22:21:11.079Z,43.73
2022-11-15T22:23:38.833Z,45.40
2022-11-15T22:26:07.023Z,39.43
2022-11-15T22:28:34.668Z,39.80
2022-11-15T22:31:01.812Z,40.83
2022-11-15T22:33:30.934Z,49.10
2022-11-15T22:35:58.384Z,42.67
2022-11-15T22:38:26.721Z,45.17
2022-11-15T22:40:54.114Z,39.97
2022-11-15T22:43:22.606Z,41.47
2022-11-15T22:45:49.753Z,40.40
2022-11-15T22:48:17.374Z,44.27
2022-11-15T22:50:45.119Z,43.00
2022-11-15T22:53:12.728Z,44.10
2022-11-15T22:55:40.738Z,42.67
2022-11-15T22:58:08.812Z,40.10
2022-11-15T23:00:36.164Z,40.97
2022-11-15T23:03:04.226Z,40.60
2022-11-15T23:05:31.294Z,37.33
2022-11-15T23:07:58.267Z,40.43
2022-11-15T23:10:43.821Z,42.20
2022-11-15T23:13:16.135Z,44.37
2022-11-15T23:16:03.742Z,44.10
2022-11-15T23:18:37.914Z,41.03
2022-11-15T23:21:15.006Z,45.57
2022-11-15T23:23:42.430Z,41.40
2022-11-15T23:26:09.568Z,45.97
2022-11-15T23:28:36.728Z,45.23
2022-11-15T23:31:26.681Z,41.90
2022-11-15T23:33:59.427Z,46.07
2022-11-15T23:36:29.897Z,46.00
2022-11-15T23:38:57.163Z,47.70
2022-11-15T23:41:24.901Z,46.13
2022-11-15T23:43:52.478Z,45.20
2022-11-15T23:46:19.776Z,44.20
2022-11-15T23:48:47.099Z,39.30
2022-11-15T23:51:14.644Z,39.33
2022-11-15T23:53:41.853Z,39.13
2022-11-15T23:56:14.119Z,46.87
2022-11-15T23:58:41.799Z,40.60
